Time;durP1;ratioP1;P1;durP2;ratioP2;P2;SDS_P1;SDS_P2;PMS_P1;PMS_P2;Temp;Humidity;BMP_temperature;BMP_pressure;BME280_temperature;BME280_humidity;BME280_pressure;Samples;Min_cycle;Max_cycle;Signal;HPM_P1;HPM_P2
2021/08/09 00:01:17;;;;;;;7.72;1.65;;;;;;;;;;5003617;28;20049;-51
2021/08/09 00:03:43;;;;;;;8.95;1.92;;;;;;;;;;5003553;28;20038;-53
2021/08/09 00:06:10;;;;;;;10.85;1.90;;;;;;;;;;4977460;28;20062;-49
2021/08/09 00:08:36;;;;;;;8.75;1.65;;;;;;;;;;5001519;28;20043;-51
2021/08/09 00:11:04;;;;;;;8.02;1.90;;;;;;;;;;4986436;28;20058;-53
2021/08/09 00:13:35;;;;;;;9.80;1.83;;;;;;;;;;4987428;28;20049;-52
2021/08/09 00:16:01;;;;;;;7.70;1.85;;;;;;;;;;4994380;28;20037;-52
2021/08/09 00:18:28;;;;;;;6.65;1.88;;;;;;;;;;4995385;28;20034;-52
2021/08/09 00:20:57;;;;;;;6.30;1.90;;;;;;;;;;5012422;28;20059;-52
2021/08/09 00:23:44;;;;;;;6.28;2.05;;;;;;;;;;4996935;28;20042;-53
2021/08/09 00:26:12;;;;;;;6.95;1.85;;;;;;;;;;4973727;28;20035;-50
2021/08/09 00:28:38;;;;;;;13.30;1.80;;;;;;;;;;4968495;28;20046;-52
2021/08/09 00:31:04;;;;;;;8.63;1.85;;;;;;;;;;4973182;28;20043;-52
2021/08/09 00:33:42;;;;;;;9.05;1.77;;;;;;;;;;4968222;28;20038;-53
2021/08/09 00:36:08;;;;;;;8.53;1.60;;;;;;;;;;4995316;28;20039;-52
2021/08/09 00:38:35;;;;;;;8.15;1.90;;;;;;;;;;4971714;28;20039;-53
2021/08/09 00:41:02;;;;;;;6.18;1.60;;;;;;;;;;4990083;28;20049;-48
2021/08/09 00:43:37;;;;;;;10.10;2.00;;;;;;;;;;4973980;28;20031;-53
2021/08/09 00:46:04;;;;;;;9.63;2.00;;;;;;;;;;4975770;28;20114;-53
2021/08/09 00:48:31;;;;;;;8.50;2.00;;;;;;;;;;4974649;28;20125;-50
2021/08/09 00:50:58;;;;;;;6.65;1.63;;;;;;;;;;4967441;28;20050;-50
2021/08/09 00:53:24;;;;;;;7.60;1.73;;;;;;;;;;4960570;28;20119;-50
2021/08/09 00:55:52;;;;;;;6.45;1.67;;;;;;;;;;4962235;28;20046;-49
2021/08/09 00:58:19;;;;;;;5.10;1.75;;;;;;;;;;4960961;28;20089;-53
2021/08/09 01:00:47;;;;;;;9.15;2.05;;;;;;;;;;4962311;28;20043;-49
2021/08/09 01:03:14;;;;;;;6.68;1.70;;;;;;;;;;4976735;28;20075;-50
2021/08/09 01:05:42;;;;;;;8.05;2.13;;;;;;;;;;4989315;28;20091;-54
2021/08/09 01:08:14;;;;;;;9.40;1.80;;;;;;;;;;4982229;28;20035;-53
2021/08/09 01:10:43;;;;;;;3.90;1.50;;;;;;;;;;4987506;28;20058;-52
2021/08/09 01:13:14;;;;;;;6.65;1.98;;;;;;;;;;4982735;28;20125;-52
2021/08/09 01:15:43;;;;;;;6.50;1.50;;;;;;;;;;5001002;28;20046;-52
2021/08/09 01:18:10;;;;;;;;;;;;;;;;;;5000394;28;20137;-54
2021/08/09 01:20:43;;;;;;;5.93;1.70;;;;;;;;;;4999174;28;19932;-54
2021/08/09 01:23:32;;;;;;;7.70;1.65;;;;;;;;;;4984495;28;20121;-53
2021/08/09 01:26:00;;;;;;;6.38;1.70;;;;;;;;;;4999863;28;20124;-53
2021/08/09 01:28:30;;;;;;;8.95;2.05;;;;;;;;;;4986175;28;20054;-52
2021/08/09 01:30:58;;;;;;;6.28;1.50;;;;;;;;;;4994125;28;20062;-53
2021/08/09 01:33:40;;;;;;;9.43;1.55;;;;;;;;;;4997724;28;20095;-51
2021/08/09 01:36:06;;;;;;;6.88;1.88;;;;;;;;;;5005602;28;20053;-52
2021/08/09 01:38:33;;;;;;;11.27;2.05;;;;;;;;;;4999236;28;20046;-53
2021/08/09 01:41:00;;;;;;;7.97;1.67;;;;;;;;;;4984931;28;20046;-53
2021/08/09 01:43:38;;;;;;;7.43;1.58;;;;;;;;;;4982982;28;20117;-50
2021/08/09 01:46:04;;;;;;;7.80;1.58;;;;;;;;;;4992373;28;20039;-53
2021/08/09 01:48:31;;;;;;;9.32;1.80;;;;;;;;;;4980597;28;20132;-51
2021/08/09 01:50:57;;;;;;;6.53;1.75;;;;;;;;;;4996151;28;20045;-52
2021/08/09 01:53:27;;;;;;;13.27;1.77;;;;;;;;;;4982074;28;20062;-52
2021/08/09 01:55:54;;;;;;;8.45;1.55;;;;;;;;;;4980232;28;20165;-52
2021/08/09 01:58:21;;;;;;;12.60;2.10;;;;;;;;;;4982020;28;20038;-51
2021/08/09 02:00:49;;;;;;;10.30;1.70;;;;;;;;;;4981277;28;20054;-51
2021/08/09 02:03:15;;;;;;;6.97;1.97;;;;;;;;;;4986885;28;20047;-52
2021/08/09 02:05:42;;;;;;;8.43;1.77;;;;;;;;;;4991997;28;20325;-50
2021/08/09 02:08:10;;;;;;;6.30;1.83;;;;;;;;;;4967961;28;20122;-50
2021/08/09 02:10:37;;;;;;;9.43;1.80;;;;;;;;;;4984761;28;20047;-54
2021/08/09 02:13:22;;;;;;;13.77;2.05;;;;;;;;;;4980800;28;20050;-52
2021/08/09 02:15:55;;;;;;;7.43;1.75;;;;;;;;;;4963303;28;20117;-52
2021/08/09 02:18:24;;;;;;;8.15;1.80;;;;;;;;;;4983183;28;20032;-49
2021/08/09 02:20:51;;;;;;;11.15;1.80;;;;;;;;;;4982116;28;20170;-53
2021/08/09 02:23:46;;;;;;;11.50;1.85;;;;;;;;;;4991959;28;20049;-50
2021/08/09 02:26:13;;;;;;;5.90;1.70;;;;;;;;;;5017244;28;20039;-49
2021/08/09 02:28:41;;;;;;;11.18;1.60;;;;;;;;;;5022380;28;20052;-48
2021/08/09 02:31:09;;;;;;;9.05;1.50;;;;;;;;;;5019223;28;20120;-52
2021/08/09 02:33:37;;;;;;;7.88;1.48;;;;;;;;;;4997459;28;20046;-47
2021/08/09 02:36:04;;;;;;;10.35;1.88;;;;;;;;;;5009431;28;20046;-47
2021/08/09 02:38:31;;;;;;;7.53;1.58;;;;;;;;;;5003746;28;20117;-53
2021/08/09 02:40:58;;;;;;;11.02;1.85;;;;;;;;;;5018858;28;20046;-51
2021/08/09 02:43:25;;;;;;;5.82;1.67;;;;;;;;;;4997905;28;20038;-50
2021/08/09 02:45:53;;;;;;;9.30;1.65;;;;;;;;;;5005459;28;20042;-53
2021/08/09 02:48:21;;;;;;;7.78;1.63;;;;;;;;;;5001211;28;20036;-49
2021/08/09 02:50:48;;;;;;;7.07;1.65;;;;;;;;;;5005597;28;20046;-49
2021/08/09 02:53:21;;;;;;;5.30;1.88;;;;;;;;;;5000770;28;20054;-52
2021/08/09 02:55:47;;;;;;;8.27;2.13;;;;;;;;;;4990193;28;20133;-51
2021/08/09 02:58:14;;;;;;;9.25;1.90;;;;;;;;;;4994288;28;20039;-51
2021/08/09 03:00:40;;;;;;;6.00;1.52;;;;;;;;;;4995586;28;20039;-51
2021/08/09 03:03:07;;;;;;;8.13;1.90;;;;;;;;;;4986500;28;20101;-53
2021/08/09 03:05:36;;;;;;;11.02;1.75;;;;;;;;;;4998562;28;20038;-52
2021/08/09 03:08:02;;;;;;;;;;;;;;;;;;4998471;28;20038;-52
2021/08/09 03:10:29;;;;;;;14.38;1.88;;;;;;;;;;5003159;28;19918;-51
2021/08/09 03:13:08;;;;;;;9.18;1.85;;;;;;;;;;4998581;28;20062;-52
2021/08/09 03:15:34;;;;;;;9.18;2.00;;;;;;;;;;4993848;28;20031;-50
2021/08/09 03:18:02;;;;;;;7.13;1.88;;;;;;;;;;4980211;28;20042;-52
2021/08/09 03:20:29;;;;;;;12.55;1.92;;;;;;;;;;5001290;28;20054;-52
2021/08/09 03:23:06;;;;;;;11.85;1.95;;;;;;;;;;4984711;28;20046;-51
2021/08/09 03:25:33;;;;;;;6.63;1.63;;;;;;;;;;4984707;28;20092;-51
2021/08/09 03:27:59;;;;;;;6.20;1.65;;;;;;;;;;5022963;28;20045;-51
2021/08/09 03:30:27;;;;;;;7.03;1.67;;;;;;;;;;5006426;28;20038;-52
2021/08/09 03:32:54;;;;;;;9.13;2.10;;;;;;;;;;5003363;28;20078;-53
2021/08/09 03:35:20;;;;;;;8.50;1.67;;;;;;;;;;4989812;28;20038;-50
2021/08/09 03:37:47;;;;;;;13.85;2.08;;;;;;;;;;5003471;28;20038;-51
2021/08/09 03:40:15;;;;;;;11.52;1.75;;;;;;;;;;5011358;28;20037;-53
2021/08/09 03:42:48;;;;;;;6.57;1.50;;;;;;;;;;5020774;28;20128;-51
2021/08/09 03:45:15;;;;;;;9.07;1.83;;;;;;;;;;5011280;28;20131;-51
2021/08/09 03:47:41;;;;;;;4.13;1.60;;;;;;;;;;5039254;28;20127;-51
2021/08/09 03:50:08;;;;;;;7.13;1.75;;;;;;;;;;5021047;28;20039;-51
2021/08/09 03:52:49;;;;;;;10.10;1.90;;;;;;;;;;4984629;28;20043;-50
2021/08/09 03:55:17;;;;;;;6.20;1.55;;;;;;;;;;5012186;28;20116;-52
2021/08/09 03:57:44;;;;;;;11.23;1.83;;;;;;;;;;5023797;28;20038;-50
2021/08/09 04:00:11;;;;;;;11.48;1.80;;;;;;;;;;5025793;28;20303;-52
2021/08/09 04:02:52;;;;;;;7.43;1.60;;;;;;;;;;5001565;28;20117;-49
2021/08/09 04:05:19;;;;;;;4.68;1.50;;;;;;;;;;4999956;28;20041;-48
2021/08/09 04:07:45;;;;;;;8.48;1.98;;;;;;;;;;5011294;28;20041;-47
2021/08/09 04:10:12;;;;;;;5.63;1.58;;;;;;;;;;5022544;28;20037;-52
2021/08/09 04:12:41;;;;;;;12.60;1.70;;;;;;;;;;5030032;28;20034;-51
2021/08/09 04:15:08;;;;;;;5.03;1.40;;;;;;;;;;5004075;28;20034;-51
2021/08/09 04:17:34;;;;;;;7.78;2.17;;;;;;;;;;5005195;28;20046;-52
2021/08/09 04:20:01;;;;;;;10.02;1.70;;;;;;;;;;5023402;28;20030;-53
2021/08/09 04:22:28;;;;;;;10.80;1.85;;;;;;;;;;5004206;28;20034;-50
2021/08/09 04:24:54;;;;;;;9.02;1.65;;;;;;;;;;5012040;28;20042;-46
2021/08/09 04:27:21;;;;;;;9.20;1.52;;;;;;;;;;4995000;28;20047;-51
2021/08/09 04:29:49;;;;;;;7.85;1.70;;;;;;;;;;4984406;28;20047;-50
2021/08/09 04:32:37;;;;;;;8.50;1.63;;;;;;;;;;4991912;28;20042;-49
2021/08/09 04:35:03;;;;;;;10.63;1.60;;;;;;;;;;4987576;28;20042;-50
2021/08/09 04:37:30;;;;;;;8.07;1.70;;;;;;;;;;5011045;28;20029;-52
2021/08/09 04:39:56;;;;;;;9.32;1.67;;;;;;;;;;5042986;28;20054;-51
2021/08/09 04:42:23;;;;;;;7.80;1.52;;;;;;;;;;5028701;28;20041;-52
2021/08/09 04:44:51;;;;;;;6.63;1.40;;;;;;;;;;5005115;28;20044;-52
2021/08/09 04:47:17;;;;;;;7.63;1.80;;;;;;;;;;4993151;28;20124;-51
2021/08/09 04:49:45;;;;;;;12.52;3.22;;;;;;;;;;4989572;28;20295;-52
2021/08/09 04:52:11;;;;;;;14.00;2.20;;;;;;;;;;4999640;28;20038;-52
2021/08/09 04:54:38;;;;;;;8.65;2.70;;;;;;;;;;4970916;28;20046;-49
2021/08/09 04:57:04;;;;;;;11.10;3.03;;;;;;;;;;4981497;28;20049;-52
2021/08/09 04:59:31;;;;;;;15.43;2.65;;;;;;;;;;4987000;28;20046;-49
2021/08/09 05:01:59;;;;;;;10.82;1.98;;;;;;;;;;5003108;28;20046;-52
2021/08/09 05:04:25;;;;;;;5.73;1.37;;;;;;;;;;5001165;28;20167;-52
2021/08/09 05:06:51;;;;;;;8.45;1.70;;;;;;;;;;5006660;28;20091;-50
2021/08/09 05:09:18;;;;;;;8.85;2.55;;;;;;;;;;4984054;28;20034;-53
2021/08/09 05:11:44;;;;;;;10.40;1.80;;;;;;;;;;4988900;28;20038;-49
2021/08/09 05:14:12;;;;;;;7.30;1.65;;;;;;;;;;4999893;28;20051;-51
2021/08/09 05:16:40;;;;;;;11.07;1.80;;;;;;;;;;4989360;28;20030;-50
2021/08/09 05:19:08;;;;;;;13.33;2.10;;;;;;;;;;5002103;28;20042;-54
2021/08/09 05:21:35;;;;;;;6.93;2.05;;;;;;;;;;4991211;28;20341;-49
2021/08/09 05:24:03;;;;;;;8.90;1.73;;;;;;;;;;5000218;28;20030;-51
2021/08/09 05:26:30;;;;;;;7.57;1.70;;;;;;;;;;5022519;28;20050;-51
2021/08/09 05:28:58;;;;;;;5.30;1.60;;;;;;;;;;5019390;28;20131;-52
2021/08/09 05:31:24;;;;;;;6.15;1.90;;;;;;;;;;5007223;28;20082;-48
2021/08/09 05:33:51;;;;;;;13.65;1.75;;;;;;;;;;5017605;28;20038;-48
2021/08/09 05:36:19;;;;;;;9.20;2.47;;;;;;;;;;4987730;28;20062;-49
2021/08/09 05:38:45;;;;;;;14.23;3.13;;;;;;;;;;4985037;28;20049;-47
2021/08/09 05:41:12;;;;;;;17.70;4.93;;;;;;;;;;5012067;28;20103;-49
2021/08/09 05:43:43;;;;;;;8.93;2.78;;;;;;;;;;4987637;28;20050;-52
2021/08/09 05:46:09;;;;;;;10.55;2.00;;;;;;;;;;5002202;28;20042;-51
2021/08/09 05:48:35;;;;;;;8.02;2.05;;;;;;;;;;5003675;28;20073;-53
2021/08/09 05:51:02;;;;;;;9.80;1.77;;;;;;;;;;4982596;28;20057;-49
2021/08/09 05:53:43;;;;;;;7.50;1.70;;;;;;;;;;4989007;28;20042;-49
2021/08/09 05:56:10;;;;;;;7.35;1.75;;;;;;;;;;4990265;28;20053;-49
2021/08/09 05:58:37;;;;;;;4.32;1.50;;;;;;;;;;5024222;28;20034;-51
2021/08/09 06:01:04;;;;;;;13.40;2.30;;;;;;;;;;4990525;28;20125;-51
2021/08/09 06:03:30;;;;;;;14.60;1.70;;;;;;;;;;4980138;28;20039;-50
2021/08/09 06:05:57;;;;;;;9.13;1.80;;;;;;;;;;4967766;28;20093;-51
2021/08/09 06:08:23;;;;;;;7.57;1.77;;;;;;;;;;4972094;28;20035;-51
2021/08/09 06:10:51;;;;;;;7.07;1.70;;;;;;;;;;4970109;28;20182;-53
2021/08/09 06:13:25;;;;;;;6.80;2.13;;;;;;;;;;4974005;28;20095;-51
2021/08/09 06:15:52;;;;;;;7.47;2.35;;;;;;;;;;4972781;28;20300;-52
2021/08/09 06:18:18;;;;;;;9.43;2.88;;;;;;;;;;4966769;28;20043;-50
2021/08/09 06:20:45;;;;;;;12.77;2.83;;;;;;;;;;4961852;28;20043;-53
2021/08/09 06:23:13;;;;;;;6.55;2.10;;;;;;;;;;4963227;28;20059;-52
2021/08/09 06:25:39;;;;;;;15.10;1.93;;;;;;;;;;4947893;28;20043;-50
2021/08/09 06:28:07;;;;;;;10.07;2.15;;;;;;;;;;4967700;28;20281;-52
2021/08/09 06:30:34;;;;;;;11.50;2.60;;;;;;;;;;4978817;28;20054;-49
2021/08/09 06:33:00;;;;;;;10.82;2.17;;;;;;;;;;4981616;28;20031;-51
2021/08/09 06:35:29;;;;;;;11.20;2.60;;;;;;;;;;4966213;28;20093;-50
2021/08/09 06:37:55;;;;;;;7.65;2.60;;;;;;;;;;4962624;28;20051;-50
2021/08/09 06:40:22;;;;;;;11.80;2.80;;;;;;;;;;4965921;28;20039;-50
2021/08/09 06:42:49;;;;;;;17.13;3.30;;;;;;;;;;4962781;28;20062;-50
2021/08/09 06:45:17;;;;;;;9.68;2.65;;;;;;;;;;4965291;28;20050;-52
2021/08/09 06:47:44;;;;;;;8.40;2.13;;;;;;;;;;4963268;28;20035;-51
2021/08/09 06:50:10;;;;;;;8.63;2.35;;;;;;;;;;4965988;28;20133;-51
2021/08/09 06:52:37;;;;;;;16.10;2.72;;;;;;;;;;4979583;28;20046;-48
2021/08/09 06:55:03;;;;;;;12.93;2.85;;;;;;;;;;4965349;28;20038;-48
2021/08/09 06:57:30;;;;;;;10.60;2.53;;;;;;;;;;4977848;28;20047;-53
2021/08/09 06:59:56;;;;;;;8.77;2.25;;;;;;;;;;4965568;28;20039;-51
2021/08/09 07:02:26;;;;;;;8.95;2.70;;;;;;;;;;4962217;28;20031;-50
2021/08/09 07:04:52;;;;;;;9.98;2.63;;;;;;;;;;4983071;28;20108;-48
2021/08/09 07:07:19;;;;;;;9.75;2.28;;;;;;;;;;4985255;28;20115;-49
2021/08/09 07:09:45;;;;;;;12.40;2.60;;;;;;;;;;4975108;28;20046;-48
2021/08/09 07:12:11;;;;;;;12.02;2.75;;;;;;;;;;5006307;28;20046;-47
2021/08/09 07:14:38;;;;;;;17.58;2.60;;;;;;;;;;4993918;28;20042;-48
2021/08/09 07:17:05;;;;;;;8.65;2.00;;;;;;;;;;4989858;28;20062;-50
2021/08/09 07:19:33;;;;;;;8.10;2.30;;;;;;;;;;5003254;28;20102;-50
2021/08/09 07:21:59;;;;;;;9.30;2.10;;;;;;;;;;5025126;28;20054;-53
2021/08/09 07:24:35;;;;;;;11.23;3.60;;;;;;;;;;5003433;28;20035;-48
2021/08/09 07:27:01;;;;;;;15.32;4.00;;;;;;;;;;5004250;28;20116;-49
2021/08/09 07:29:29;;;;;;;14.98;3.08;;;;;;;;;;4984922;28;20046;-50
2021/08/09 07:31:56;;;;;;;9.77;2.03;;;;;;;;;;5006676;28;20030;-51
2021/08/09 07:34:23;;;;;;;7.88;1.70;;;;;;;;;;5018938;28;20049;-51
2021/08/09 07:36:51;;;;;;;10.02;2.17;;;;;;;;;;4986679;28;20042;-48
2021/08/09 07:39:18;;;;;;;9.80;1.93;;;;;;;;;;4972812;28;20079;-51
2021/08/09 07:41:44;;;;;;;9.60;1.70;;;;;;;;;;4995572;28;20276;-49
2021/08/09 07:44:12;;;;;;;9.85;2.15;;;;;;;;;;4968214;28;20043;-50
2021/08/09 07:46:39;;;;;;;7.90;1.90;;;;;;;;;;4999313;28;20074;-52
2021/08/09 07:49:05;;;;;;;12.82;2.17;;;;;;;;;;4995331;28;20287;-51
2021/08/09 07:51:32;;;;;;;9.75;2.05;;;;;;;;;;4984732;28;20042;-50
2021/08/09 07:54:09;;;;;;;11.55;2.17;;;;;;;;;;4997725;28;20117;-49
2021/08/09 07:56:35;;;;;;;7.93;1.85;;;;;;;;;;4983194;28;20069;-53
2021/08/09 07:59:02;;;;;;;11.07;2.00;;;;;;;;;;4997294;28;20035;-52
2021/08/09 08:01:28;;;;;;;8.55;1.60;;;;;;;;;;5002510;28;20043;-51
2021/08/09 08:03:55;;;;;;;8.02;1.73;;;;;;;;;;4983391;28;20045;-53
2021/08/09 08:06:21;;;;;;;10.45;2.05;;;;;;;;;;4980538;28;20125;-53
2021/08/09 08:08:47;;;;;;;10.20;1.83;;;;;;;;;;4984695;28;20053;-51
2021/08/09 08:11:15;;;;;;;8.20;1.80;;;;;;;;;;4979731;28;20059;-53
2021/08/09 08:13:42;;;;;;;8.20;1.80;;;;;;;;;;5002339;28;20052;-49
2021/08/09 08:16:10;;;;;;;5.97;1.52;;;;;;;;;;4997537;28;20300;-51
2021/08/09 08:18:36;;;;;;;6.40;1.83;;;;;;;;;;4986119;28;20039;-50
2021/08/09 08:21:04;;;;;;;5.47;1.30;;;;;;;;;;4981117;28;20101;-50
2021/08/09 08:23:32;;;;;;;8.23;1.60;;;;;;;;;;4960193;28;20039;-54
2021/08/09 08:25:58;;;;;;;7.25;1.65;;;;;;;;;;4953464;28;20054;-52
2021/08/09 08:28:26;;;;;;;6.28;1.10;;;;;;;;;;4966693;28;20043;-53
2021/08/09 08:30:53;;;;;;;3.78;1.48;;;;;;;;;;4958099;28;20052;-53
2021/08/09 08:33:20;;;;;;;6.78;1.40;;;;;;;;;;4948611;28;20051;-50
2021/08/09 08:35:46;;;;;;;10.18;1.60;;;;;;;;;;4964401;28;20054;-52
2021/08/09 08:38:13;;;;;;;4.93;1.33;;;;;;;;;;4968358;28;20035;-52
2021/08/09 08:40:45;;;;;;;5.05;1.45;;;;;;;;;;4975969;28;20039;-50
2021/08/09 08:43:19;;;;;;;8.95;1.30;;;;;;;;;;4965654;28;20036;-50
2021/08/09 08:45:47;;;;;;;4.57;1.25;;;;;;;;;;4950755;28;20038;-50
2021/08/09 08:48:13;;;;;;;8.30;2.20;;;;;;;;;;4951825;28;20035;-50
2021/08/09 08:50:40;;;;;;;4.45;1.65;;;;;;;;;;4964442;28;20062;-51
2021/08/09 08:53:08;;;;;;;15.48;5.05;;;;;;;;;;4944725;28;20051;-52
2021/08/09 08:55:34;;;;;;;8.52;2.25;;;;;;;;;;4947227;28;20054;-52
2021/08/09 08:58:01;;;;;;;10.20;2.00;;;;;;;;;;4973427;28;20051;-51
2021/08/09 09:00:35;;;;;;;7.75;1.33;;;;;;;;;;4980767;28;20054;-53
2021/08/09 09:03:04;;;;;;;4.85;1.40;;;;;;;;;;4959985;28;20043;-53
2021/08/09 09:05:33;;;;;;;4.68;1.02;;;;;;;;;;5005674;28;20046;-54
2021/08/09 09:08:00;;;;;;;4.13;1.45;;;;;;;;;;5001426;28;20049;-52
2021/08/09 09:10:28;;;;;;;11.57;1.70;;;;;;;;;;5010793;28;20038;-53
2021/08/09 09:13:09;;;;;;;6.60;1.48;;;;;;;;;;4999413;28;20038;-53
2021/08/09 09:15:55;;;;;;;7.93;1.42;;;;;;;;;;4986647;28;20049;-51
2021/08/09 09:18:23;;;;;;;6.35;1.63;;;;;;;;;;5002116;28;20038;-51
2021/08/09 09:20:50;;;;;;;5.07;1.33;;;;;;;;;;5008332;28;20033;-51
2021/08/09 09:23:21;;;;;;;5.65;1.23;;;;;;;;;;5018435;28;20037;-53
2021/08/09 09:25:49;;;;;;;6.82;1.33;;;;;;;;;;5004583;28;20057;-54
2021/08/09 09:28:22;;;;;;;6.95;1.60;;;;;;;;;;4998953;28;20083;-51
2021/08/09 09:30:49;;;;;;;7.18;1.40;;;;;;;;;;4986684;28;20042;-53
2021/08/09 09:33:15;;;;;;;10.00;1.30;;;;;;;;;;4985894;28;20055;-55
2021/08/09 09:35:43;;;;;;;4.90;1.38;;;;;;;;;;4970476;28;20034;-53
2021/08/09 09:38:10;;;;;;;3.65;0.95;;;;;;;;;;4985851;28;20045;-53
2021/08/09 09:40:42;;;;;;;8.10;1.25;;;;;;;;;;5004969;28;20052;-50
2021/08/09 09:43:17;;;;;;;9.18;1.40;;;;;;;;;;5002165;28;20038;-55
2021/08/09 09:45:51;;;;;;;4.93;1.00;;;;;;;;;;4993812;28;20154;-52
2021/08/09 09:48:18;;;;;;;11.30;1.40;;;;;;;;;;5016829;28;20038;-53
2021/08/09 09:50:46;;;;;;;6.75;1.88;;;;;;;;;;5022805;28;20042;-54
2021/08/09 09:53:18;;;;;;;10.35;2.10;;;;;;;;;;5000429;28;20030;-53
2021/08/09 09:55:47;;;;;;;5.93;1.73;;;;;;;;;;5001621;28;20136;-53
2021/08/09 09:58:14;;;;;;;5.93;1.50;;;;;;;;;;4996578;28;20120;-51
2021/08/09 10:00:41;;;;;;;6.78;1.30;;;;;;;;;;4997342;28;20078;-53
2021/08/09 10:03:07;;;;;;;4.32;1.20;;;;;;;;;;4985674;28;20030;-53
2021/08/09 10:05:35;;;;;;;8.23;1.80;;;;;;;;;;4988957;28;20153;-53
2021/08/09 10:08:04;;;;;;;11.82;4.45;;;;;;;;;;4986475;28;20043;-53
2021/08/09 10:10:31;;;;;;;10.38;1.85;;;;;;;;;;5002499;28;20050;-51
2021/08/09 10:12:58;;;;;;;4.68;1.52;;;;;;;;;;5000674;28;20031;-52
2021/08/09 10:15:25;;;;;;;9.30;1.40;;;;;;;;;;4996574;28;20026;-51
2021/08/09 10:17:52;;;;;;;6.43;1.23;;;;;;;;;;5025525;28;20037;-48
2021/08/09 10:20:19;;;;;;;6.68;1.38;;;;;;;;;;5008706;28;20034;-51
2021/08/09 10:23:04;;;;;;;6.78;1.00;;;;;;;;;;5016549;28;20041;-53
2021/08/09 10:25:44;;;;;;;4.10;1.27;;;;;;;;;;4993291;28;20045;-52
2021/08/09 10:28:11;;;;;;;5.72;1.17;;;;;;;;;;5020771;28;20049;-51
2021/08/09 10:30:37;;;;;;;7.75;1.27;;;;;;;;;;5002587;28;20104;-51
2021/08/09 10:33:13;;;;;;;5.05;1.30;;;;;;;;;;4988561;28;20045;-53
2021/08/09 10:36:03;;;;;;;4.70;1.38;;;;;;;;;;5010815;28;20115;-50
2021/08/09 10:38:37;;;;;;;4.78;1.10;;;;;;;;;;5007429;28;20034;-50
2021/08/09 10:41:21;;;;;;;2.92;0.98;;;;;;;;;;5022260;28;20049;-55
2021/08/09 10:44:07;;;;;;;9.43;1.40;;;;;;;;;;5026418;28;20141;-53
2021/08/09 10:46:38;;;;;;;3.55;1.30;;;;;;;;;;4984553;28;20034;-54
2021/08/09 10:49:05;;;;;;;3.53;1.20;;;;;;;;;;4979038;28;20038;-53
2021/08/09 10:51:46;;;;;;;4.32;1.23;;;;;;;;;;5009609;28;20054;-51
2021/08/09 10:54:24;;;;;;;6.43;1.40;;;;;;;;;;4990522;28;20046;-52
2021/08/09 10:56:50;;;;;;;4.05;1.00;;;;;;;;;;5000129;28;20054;-52
2021/08/09 10:59:35;;;;;;;5.78;1.30;;;;;;;;;;5004790;28;20041;-53
2021/08/09 11:02:04;;;;;;;5.68;1.52;;;;;;;;;;4989527;28;20117;-51
2021/08/09 11:04:30;;;;;;;5.45;1.40;;;;;;;;;;5024756;28;20047;-54
2021/08/09 11:06:57;;;;;;;3.75;1.02;;;;;;;;;;5013439;28;20038;-54
2021/08/09 11:09:43;;;;;;;4.18;1.00;;;;;;;;;;4986045;28;20042;-53
2021/08/09 11:12:10;;;;;;;7.88;1.27;;;;;;;;;;4983730;28;20057;-53
2021/08/09 11:14:54;;;;;;;5.53;1.58;;;;;;;;;;5041501;28;20037;-51
2021/08/09 11:17:22;;;;;;;4.75;1.05;;;;;;;;;;5011137;28;20046;-53
2021/08/09 11:19:48;;;;;;;3.28;1.00;;;;;;;;;;5001742;28;20042;-54
2021/08/09 11:22:19;;;;;;;4.55;1.10;;;;;;;;;;4996708;28;20112;-52
2021/08/09 11:24:45;;;;;;;6.57;1.00;;;;;;;;;;4968990;28;20026;-54
2021/08/09 11:27:12;;;;;;;7.88;1.75;;;;;;;;;;4968415;28;20035;-52
2021/08/09 11:29:52;;;;;;;8.23;1.73;;;;;;;;;;5003867;28;20034;-51
2021/08/09 11:32:37;;;;;;;8.05;1.85;;;;;;;;;;5005710;28;20038;-55
2021/08/09 11:35:06;;;;;;;11.43;2.72;;;;;;;;;;4998646;28;20041;-53
2021/08/09 11:37:32;;;;;;;;;;;;;;;;;;5004480;28;20063;-54
2021/08/09 11:39:59;;;;;;;4.43;1.20;;;;;;;;;;5019426;28;19924;-53
2021/08/09 11:42:25;;;;;;;2.60;0.93;;;;;;;;;;4991919;28;20047;-51
2021/08/09 11:44:52;;;;;;;5.95;1.52;;;;;;;;;;5012247;28;20043;-54
2021/08/09 11:47:22;;;;;;;7.40;1.13;;;;;;;;;;5003617;28;20045;-53
2021/08/09 11:49:48;;;;;;;4.15;0.90;;;;;;;;;;5001685;28;20052;-53
2021/08/09 11:52:20;;;;;;;8.95;1.30;;;;;;;;;;5008142;28;20100;-50
2021/08/09 11:54:47;;;;;;;5.68;1.23;;;;;;;;;;4992414;28;20031;-47
2021/08/09 11:57:14;;;;;;;3.88;1.10;;;;;;;;;;5011092;28;20045;-48
2021/08/09 11:59:41;;;;;;;9.10;1.20;;;;;;;;;;4993235;28;20049;-53
2021/08/09 12:02:10;;;;;;;5.75;1.23;;;;;;;;;;5003677;28;20039;-55
2021/08/09 12:04:41;;;;;;;5.57;1.20;;;;;;;;;;5001756;28;20090;-54
2021/08/09 12:07:17;;;;;;;5.82;0.85;;;;;;;;;;5010136;28;20038;-54
2021/08/09 12:09:44;;;;;;;5.18;1.10;;;;;;;;;;5018002;28;20049;-52
2021/08/09 12:12:14;;;;;;;5.63;1.05;;;;;;;;;;5009805;28;20044;-54
2021/08/09 12:14:41;;;;;;;5.20;1.10;;;;;;;;;;5019284;28;20078;-54
2021/08/09 12:17:14;;;;;;;2.65;1.00;;;;;;;;;;4994026;28;20042;-54
2021/08/09 12:19:41;;;;;;;2.65;1.00;;;;;;;;;;5022536;28;20062;-52
2021/08/09 12:22:09;;;;;;;2.80;0.95;;;;;;;;;;5009139;28;20038;-55
2021/08/09 12:24:35;;;;;;;4.33;1.10;;;;;;;;;;5020480;28;20017;-54
2021/08/09 12:27:15;;;;;;;2.95;0.88;;;;;;;;;;5043627;28;20053;-55
2021/08/09 12:29:58;;;;;;;3.08;1.13;;;;;;;;;;5020616;28;20060;-53
2021/08/09 12:32:26;;;;;;;6.10;1.77;;;;;;;;;;5010532;28;20026;-53
2021/08/09 12:34:52;;;;;;;5.33;1.10;;;;;;;;;;5006278;28;20073;-54
2021/08/09 12:37:19;;;;;;;2.47;0.90;;;;;;;;;;5027494;28;20274;-53
2021/08/09 12:39:45;;;;;;;4.95;1.10;;;;;;;;;;5006434;28;20040;-56
2021/08/09 12:42:13;;;;;;;6.38;1.33;;;;;;;;;;5004506;28;20050;-52
2021/08/09 12:44:40;;;;;;;4.18;1.30;;;;;;;;;;5015285;28;20034;-55
2021/08/09 12:47:07;;;;;;;3.17;1.20;;;;;;;;;;5003204;28;20094;-53
2021/08/09 12:49:34;;;;;;;3.88;1.08;;;;;;;;;;4998551;28;20129;-53
2021/08/09 12:52:00;;;;;;;4.25;1.05;;;;;;;;;;5003486;28;20046;-52
2021/08/09 12:54:27;;;;;;;5.22;1.13;;;;;;;;;;5005353;28;20144;-53
2021/08/09 12:56:53;;;;;;;5.00;1.20;;;;;;;;;;4993824;28;20124;-54
2021/08/09 12:59:20;;;;;;;3.13;1.00;;;;;;;;;;5026566;28;20041;-52
2021/08/09 13:01:48;;;;;;;6.88;1.05;;;;;;;;;;5008121;28;20053;-56
2021/08/09 13:04:14;;;;;;;2.70;1.10;;;;;;;;;;4997292;28;20061;-54
2021/08/09 13:06:41;;;;;;;3.25;1.10;;;;;;;;;;4985386;28;20040;-55
2021/08/09 13:09:08;;;;;;;6.72;1.00;;;;;;;;;;4990005;28;20059;-52
2021/08/09 13:11:35;;;;;;;3.20;1.05;;;;;;;;;;4993197;28;20135;-55
2021/08/09 13:14:06;;;;;;;2.22;0.90;;;;;;;;;;5014117;28;20048;-54
2021/08/09 13:16:34;;;;;;;4.00;1.00;;;;;;;;;;5018984;28;20037;-53
2021/08/09 13:19:02;;;;;;;4.22;1.00;;;;;;;;;;5021743;28;20034;-54
2021/08/09 13:21:28;;;;;;;2.88;1.10;;;;;;;;;;5002162;28;20042;-53
2021/08/09 13:24:06;;;;;;;8.70;1.00;;;;;;;;;;5002293;28;20111;-52
2021/08/09 13:26:32;;;;;;;4.97;1.30;;;;;;;;;;5008561;28;20045;-51
2021/08/09 13:28:59;;;;;;;4.60;1.15;;;;;;;;;;5005358;28;20049;-49
2021/08/09 13:31:25;;;;;;;4.40;1.38;;;;;;;;;;4998034;28;20027;-52
2021/08/09 13:33:53;;;;;;;3.05;1.35;;;;;;;;;;5007212;28;20124;-52
2021/08/09 13:36:21;;;;;;;8.05;1.90;;;;;;;;;;5001743;28;20050;-52
2021/08/09 13:38:48;;;;;;;4.57;1.90;;;;;;;;;;4988025;28;20034;-53
2021/08/09 13:41:14;;;;;;;4.28;1.50;;;;;;;;;;5013657;28;20107;-54
2021/08/09 13:43:42;;;;;;;3.03;1.20;;;;;;;;;;5002889;28;20039;-53
2021/08/09 13:46:09;;;;;;;4.35;1.13;;;;;;;;;;5002412;28;20038;-52
2021/08/09 13:48:36;;;;;;;5.70;1.77;;;;;;;;;;5000049;28;20030;-53
2021/08/09 13:51:02;;;;;;;4.28;1.23;;;;;;;;;;5008413;28;20054;-54
2021/08/09 13:53:31;;;;;;;3.58;1.00;;;;;;;;;;4995564;28;20059;-52
2021/08/09 13:55:58;;;;;;;6.03;1.20;;;;;;;;;;4987792;28;20043;-53
2021/08/09 13:58:24;;;;;;;5.85;1.65;;;;;;;;;;5016550;28;20042;-51
2021/08/09 14:00:51;;;;;;;4.38;1.50;;;;;;;;;;5005334;28;20035;-53
2021/08/09 14:03:19;;;;;;;4.97;1.58;;;;;;;;;;5019791;28;20070;-54
2021/08/09 14:05:45;;;;;;;4.80;1.50;;;;;;;;;;5003630;28;20054;-55
2021/08/09 14:08:11;;;;;;;3.47;1.17;;;;;;;;;;5020732;28;20271;-53
2021/08/09 14:10:39;;;;;;;8.60;1.70;;;;;;;;;;5007614;28;20034;-54
2021/08/09 14:13:13;;;;;;;4.28;1.40;;;;;;;;;;4988326;28;20034;-55
2021/08/09 14:15:40;;;;;;;3.30;1.30;;;;;;;;;;5017459;28;20036;-55
2021/08/09 14:18:06;;;;;;;5.15;1.40;;;;;;;;;;5023152;28;20037;-54
2021/08/09 14:20:33;;;;;;;6.45;1.58;;;;;;;;;;5019635;28;20057;-55
2021/08/09 14:23:00;;;;;;;6.90;1.60;;;;;;;;;;5007560;28;20042;-55
2021/08/09 14:25:26;;;;;;;7.85;1.55;;;;;;;;;;5003922;28;20037;-55
2021/08/09 14:27:54;;;;;;;5.50;1.20;;;;;;;;;;5007357;28;20042;-53
2021/08/09 14:30:21;;;;;;;7.40;1.73;;;;;;;;;;5018342;28;20078;-54
2021/08/09 14:32:48;;;;;;;6.68;1.50;;;;;;;;;;4987740;28;20104;-53
2021/08/09 14:35:15;;;;;;;8.63;1.60;;;;;;;;;;4994334;28;20065;-54
2021/08/09 14:37:50;;;;;;;4.43;1.75;;;;;;;;;;5024211;28;20291;-56
2021/08/09 14:40:17;;;;;;;7.97;1.95;;;;;;;;;;5004498;28;20029;-53
2021/08/09 14:42:50;;;;;;;7.65;1.45;;;;;;;;;;5008094;28;20033;-49
2021/08/09 14:45:18;;;;;;;10.65;1.52;;;;;;;;;;5004205;28;20049;-52
2021/08/09 14:47:44;;;;;;;3.05;1.33;;;;;;;;;;5007928;28;20034;-54
2021/08/09 14:50:12;;;;;;;4.20;1.50;;;;;;;;;;5001635;28;20042;-55